RJOZ(METAR)
12/11 17:10
RJOZ 110810Z 32002KT 6000 -RA FEW005 BKN015 BKN045 07/07 Q1020
RMK 2ST005 5CU015 6SC045 A3013=
戻る
トップページへ戻る
IMOC Co,.Ltd.